createdAt,value
2022-08-26T00:01:57.667Z,101721.78
2022-08-26T00:04:26.903Z,101717.75
2022-08-26T00:06:55.728Z,101716.09
2022-08-26T00:09:24.782Z,101717.09
2022-08-26T00:11:53.446Z,101717.66
2022-08-26T00:14:21.517Z,101716.63
2022-08-26T00:16:50.955Z,101708.75
2022-08-26T00:19:20.859Z,101706.47
2022-08-26T00:21:50.256Z,101708.25
2022-08-26T00:24:20.767Z,101710.81
2022-08-26T00:26:48.939Z,101713.63
2022-08-26T00:29:17.300Z,101712.78
2022-08-26T00:31:45.821Z,101713.63
2022-08-26T00:34:16.639Z,101713.69
2022-08-26T00:36:49.331Z,101709.00
2022-08-26T00:39:21.005Z,101715.31
2022-08-26T00:41:50.476Z,101711.06
2022-08-26T00:44:19.513Z,101706.69
2022-08-26T00:46:50.004Z,101714.31
2022-08-26T00:49:22.821Z,101710.38
2022-08-26T00:51:54.841Z,101712.03
2022-08-26T00:54:27.023Z,101711.13
2022-08-26T00:56:57.986Z,101702.97
2022-08-26T00:59:28.928Z,101713.94
2022-08-26T01:02:00.975Z,101701.38
2022-08-26T01:04:34.948Z,101704.59
2022-08-26T01:07:05.470Z,101707.81
2022-08-26T01:09:33.744Z,101705.78
2022-08-26T01:12:03.380Z,101709.59
2022-08-26T01:14:37.495Z,101706.03
2022-08-26T01:17:07.178Z,101697.63
2022-08-26T01:19:43.489Z,101693.38
2022-08-26T01:22:13.746Z,101694.13
2022-08-26T01:24:43.692Z,101691.38
2022-08-26T01:27:14.421Z,101700.13
2022-08-26T01:29:43.913Z,101696.53
2022-08-26T01:32:14.355Z,101698.03
2022-08-26T01:34:42.457Z,101691.88
2022-08-26T01:37:13.769Z,101700.06
2022-08-26T01:39:48.037Z,101697.66
2022-08-26T01:42:17.051Z,101693.28
2022-08-26T01:44:48.810Z,101686.22
2022-08-26T01:47:17.874Z,101684.75
2022-08-26T01:49:47.652Z,101688.50
2022-08-26T01:52:28.392Z,101681.94
2022-08-26T01:54:58.767Z,101684.28
2022-08-26T01:57:27.078Z,101684.69
2022-08-26T01:59:56.981Z,101677.75
2022-08-26T02:02:25.326Z,101683.03
2022-08-26T02:04:55.819Z,101685.91
2022-08-26T02:07:26.504Z,101679.16
2022-08-26T02:09:55.011Z,101684.91
2022-08-26T02:12:24.475Z,101685.84
2022-08-26T02:14:55.985Z,101681.63
2022-08-26T02:17:27.473Z,101686.16
2022-08-26T02:19:55.827Z,101680.94
2022-08-26T02:22:24.871Z,101683.03
2022-08-26T02:24:55.805Z,101681.56
2022-08-26T02:27:28.506Z,101685.00
2022-08-26T02:30:07.121Z,101678.06
2022-08-26T02:32:35.046Z,101671.31
2022-08-26T02:35:03.324Z,101675.97
2022-08-26T02:37:32.687Z,101678.31
2022-08-26T02:40:02.250Z,101667.97
2022-08-26T02:42:32.648Z,101678.16
2022-08-26T02:45:00.681Z,101679.72
2022-08-26T02:47:29.114Z,101673.72
2022-08-26T02:49:57.278Z,101672.47
2022-08-26T02:52:25.413Z,101668.59
2022-08-26T02:54:53.484Z,101666.63
2022-08-26T02:57:22.210Z,101665.81
2022-08-26T02:59:51.594Z,101669.84
2022-08-26T03:02:19.758Z,101655.09
2022-08-26T03:04:57.419Z,101656.81
2022-08-26T03:07:26.343Z,101647.72
2022-08-26T03:09:54.240Z,101655.63
2022-08-26T03:12:22.202Z,101658.66
2022-08-26T03:14:51.530Z,101658.25
2022-08-26T03:17:21.087Z,101653.53
2022-08-26T03:19:52.893Z,101654.84
2022-08-26T03:22:25.450Z,101648.72
2022-08-26T03:24:53.423Z,101648.16
2022-08-26T03:27:21.630Z,101644.47
2022-08-26T03:30:08.634Z,101648.94
2022-08-26T03:32:39.822Z,101644.44
2022-08-26T03:35:10.203Z,101639.94
2022-08-26T03:37:38.384Z,101644.59
2022-08-26T03:40:09.044Z,101647.31
2022-08-26T03:42:37.786Z,101643.84
2022-08-26T03:45:10.424Z,101647.41
2022-08-26T03:47:38.687Z,101647.78
2022-08-26T03:50:08.523Z,101639.47
2022-08-26T03:52:43.041Z,101635.13
2022-08-26T03:55:12.401Z,101644.34
2022-08-26T03:57:40.371Z,101639.00
2022-08-26T04:00:18.270Z,101642.41
2022-08-26T04:02:51.169Z,101640.72
2022-08-26T04:05:22.987Z,101639.47
2022-08-26T04:07:51.120Z,101641.72
2022-08-26T04:10:28.694Z,101642.97
2022-08-26T04:12:58.882Z,101636.06
2022-08-26T04:15:28.803Z,101646.69
2022-08-26T04:17:57.331Z,101640.34
2022-08-26T04:20:26.172Z,101643.09
2022-08-26T04:22:54.585Z,101644.81
2022-08-26T04:25:22.557Z,101648.88
2022-08-26T04:27:52.285Z,101639.25
2022-08-26T04:30:21.209Z,101638.31
2022-08-26T04:32:50.852Z,101640.09
2022-08-26T04:35:22.773Z,101640.41
2022-08-26T04:37:54.040Z,101644.66
2022-08-26T04:40:22.227Z,101640.63
2022-08-26T04:42:50.269Z,101641.38
2022-08-26T04:45:19.072Z,101635.09
2022-08-26T04:47:56.827Z,101640.28
2022-08-26T04:50:25.783Z,101639.84
2022-08-26T04:52:55.332Z,101633.53
2022-08-26T04:55:38.443Z,101641.38
2022-08-26T04:58:10.193Z,101642.31
2022-08-26T05:00:39.397Z,101644.34
2022-08-26T05:03:10.287Z,101642.25
2022-08-26T05:05:43.235Z,101638.44
2022-08-26T05:08:12.239Z,101639.59
2022-08-26T05:10:41.989Z,101654.22
2022-08-26T05:13:14.226Z,101650.09
2022-08-26T05:15:44.507Z,101651.41
2022-08-26T05:18:16.366Z,101650.84
2022-08-26T05:20:46.538Z,101651.66
2022-08-26T05:23:15.107Z,101657.72
2022-08-26T05:25:45.420Z,101647.75
2022-08-26T05:28:14.868Z,101644.63
2022-08-26T05:30:44.525Z,101657.91
2022-08-26T05:33:14.031Z,101643.09
2022-08-26T05:35:43.189Z,101645.66
2022-08-26T05:38:14.476Z,101646.66
2022-08-26T05:40:44.589Z,101645.66
2022-08-26T05:43:13.968Z,101646.59
2022-08-26T05:45:46.182Z,101647.25
2022-08-26T05:48:16.690Z,101648.19
2022-08-26T05:50:46.478Z,101644.81
2022-08-26T05:53:17.540Z,101647.53
2022-08-26T05:55:47.042Z,101645.50
2022-08-26T05:58:15.140Z,101650.97
2022-08-26T06:00:45.684Z,101640.13
2022-08-26T06:03:15.355Z,101643.66
2022-08-26T06:05:43.385Z,101638.94
2022-08-26T06:08:14.139Z,101636.44
2022-08-26T06:10:49.716Z,101637.84
2022-08-26T06:13:20.094Z,101639.34
2022-08-26T06:15:50.764Z,101636.97
2022-08-26T06:18:21.612Z,101636.75
2022-08-26T06:20:57.271Z,101625.31
2022-08-26T06:23:44.407Z,101624.53
2022-08-26T06:26:12.758Z,101615.22
2022-08-26T06:28:40.695Z,101613.09
2022-08-26T06:31:11.641Z,101612.09
2022-08-26T06:33:41.070Z,101612.94
2022-08-26T06:36:09.192Z,101606.34
2022-08-26T06:38:37.207Z,101596.78
2022-08-26T06:41:05.133Z,101587.41
2022-08-26T06:43:33.149Z,101585.69
2022-08-26T06:46:02.945Z,101595.31
2022-08-26T06:48:33.431Z,101584.81
2022-08-26T06:51:08.956Z,101566.06
2022-08-26T06:53:36.959Z,101568.78
2022-08-26T06:56:07.708Z,101562.81
2022-08-26T06:58:38.770Z,101558.47
2022-08-26T07:01:16.464Z,101560.31
2022-08-26T07:03:46.723Z,101546.31
2022-08-26T07:06:18.472Z,101533.97
2022-08-26T07:08:46.701Z,101519.47
2022-08-26T07:11:15.830Z,101508.03
2022-08-26T07:13:44.832Z,101497.72
2022-08-26T07:16:15.532Z,101507.94
2022-08-26T07:18:45.173Z,101492.97
2022-08-26T07:21:18.301Z,101493.84
2022-08-26T07:23:46.931Z,101485.22
2022-08-26T07:26:17.996Z,101488.81
2022-08-26T07:28:47.098Z,101486.31
2022-08-26T07:31:16.360Z,101476.88
2022-08-26T07:33:45.025Z,101479.69
2022-08-26T07:36:15.672Z,101472.66
2022-08-26T07:38:45.196Z,101465.56
2022-08-26T07:41:14.239Z,101445.75
2022-08-26T07:43:42.348Z,101438.72
2022-08-26T07:46:16.302Z,101448.25
2022-08-26T07:48:46.154Z,101425.72
2022-08-26T07:51:16.204Z,101422.44
2022-08-26T07:53:48.024Z,101408.53
2022-08-26T07:56:20.679Z,101420.06
2022-08-26T07:58:51.580Z,101426.44
2022-08-26T08:01:20.351Z,101425.38
2022-08-26T08:03:51.490Z,101429.00
2022-08-26T08:06:21.789Z,101418.06
2022-08-26T08:08:51.639Z,101409.06
2022-08-26T08:11:21.191Z,101406.53
2022-08-26T08:13:56.055Z,101398.66
2022-08-26T08:16:26.418Z,101393.88
2022-08-26T08:18:54.783Z,101387.38
2022-08-26T08:21:25.363Z,101388.41
2022-08-26T08:23:54.068Z,101373.75
2022-08-26T08:26:22.291Z,101371.00
2022-08-26T08:28:50.361Z,101358.44
2022-08-26T08:31:45.083Z,101348.91
2022-08-26T08:34:10.443Z,101344.34
2022-08-26T08:36:39.785Z,101342.53
2022-08-26T08:39:07.664Z,101336.00
2022-08-26T08:41:50.117Z,101326.16
2022-08-26T08:46:54.605Z,101322.31
2022-08-26T08:49:23.210Z,101317.13
2022-08-26T08:51:57.323Z,101313.34
2022-08-26T08:54:26.859Z,101321.81
2022-08-26T08:57:00.965Z,101313.72
2022-08-26T08:59:34.179Z,101310.09
2022-08-26T09:02:09.653Z,101307.44
2022-08-26T09:04:59.291Z,101311.44
2022-08-26T09:07:35.904Z,101316.28
2022-08-26T09:10:07.774Z,101306.50
2022-08-26T09:12:36.501Z,101308.94
2022-08-26T09:15:07.587Z,101301.34
2022-08-26T09:17:41.923Z,101306.88
2022-08-26T09:20:18.220Z,101304.09
2022-08-26T09:22:47.627Z,101308.38
2022-08-26T09:25:16.225Z,101311.44
2022-08-26T09:27:50.399Z,101308.19
2022-08-26T09:30:26.509Z,101304.75
2022-08-26T09:33:02.620Z,101296.91
2022-08-26T09:35:32.850Z,101303.28
2022-08-26T09:38:02.192Z,101304.06
2022-08-26T09:40:34.798Z,101297.00
2022-08-26T09:43:15.828Z,101286.47
2022-08-26T09:45:50.812Z,101289.28
2022-08-26T09:48:29.956Z,101291.88
2022-08-26T09:50:59.563Z,101287.88
2022-08-26T09:53:30.906Z,101287.22
2022-08-26T09:56:16.397Z,101284.25
2022-08-26T09:58:47.129Z,101286.19
2022-08-26T10:01:30.094Z,101286.22
2022-08-26T10:04:06.482Z,101285.59
2022-08-26T10:06:38.201Z,101287.94
2022-08-26T10:09:10.774Z,101291.00
2022-08-26T10:11:41.187Z,101284.84
2022-08-26T10:14:12.084Z,101283.44
2022-08-26T10:16:44.150Z,101280.75
2022-08-26T10:19:14.787Z,101279.72
2022-08-26T10:21:49.780Z,101277.34
2022-08-26T10:24:26.388Z,101273.59
2022-08-26T10:27:01.075Z,101277.91
2022-08-26T10:29:34.276Z,101273.09
2022-08-26T10:32:05.795Z,101270.28
2022-08-26T10:34:34.551Z,101275.66
2022-08-26T10:37:15.699Z,101273.16
2022-08-26T10:39:57.276Z,101271.09
2022-08-26T10:42:28.927Z,101266.03
2022-08-26T10:45:00.181Z,101259.09
2022-08-26T10:47:34.935Z,101260.31
2022-08-26T10:50:04.573Z,101247.19
2022-08-26T10:52:43.785Z,101251.78
2022-08-26T10:55:19.809Z,101247.84
2022-08-26T10:57:52.577Z,101250.75
2022-08-26T11:00:40.199Z,101238.00
2022-08-26T11:03:24.604Z,101232.50
2022-08-26T11:06:17.301Z,101233.09
2022-08-26T11:08:48.373Z,101235.66
2022-08-26T11:11:47.111Z,101229.25
2022-08-26T11:14:46.076Z,101230.91
2022-08-26T11:21:52.032Z,101220.13
2022-08-26T11:24:48.386Z,101220.13
2022-08-26T11:27:55.986Z,101205.50
2022-08-26T11:30:45.121Z,101193.50
2022-08-26T11:33:59.827Z,101189.16
2022-08-26T11:37:06.189Z,101184.31
2022-08-26T11:39:54.772Z,101179.97
2022-08-26T11:42:31.073Z,101169.78
2022-08-26T11:44:59.898Z,101167.03
2022-08-26T11:47:32.737Z,101176.63
2022-08-26T11:50:13.322Z,101165.63
2022-08-26T11:52:41.332Z,101163.81
2022-08-26T11:55:13.101Z,101167.31
2022-08-26T11:57:43.284Z,101157.91
2022-08-26T12:00:15.850Z,101170.44
2022-08-26T12:02:48.673Z,101171.69
2022-08-26T12:05:21.543Z,101168.63
2022-08-26T12:07:53.145Z,101165.63
2022-08-26T12:10:30.273Z,101160.09
2022-08-26T12:13:00.238Z,101168.56
2022-08-26T12:15:29.523Z,101166.81
2022-08-26T12:17:57.954Z,101164.66
2022-08-26T12:20:45.944Z,101174.91
2022-08-26T12:23:31.546Z,101179.88
2022-08-26T12:26:06.890Z,101172.63
2022-08-26T12:28:35.285Z,101172.97
2022-08-26T12:31:05.372Z,101162.34
2022-08-26T12:33:36.586Z,101136.03
2022-08-26T12:36:05.393Z,101120.97
2022-08-26T12:38:33.898Z,101125.75
2022-08-26T12:41:02.004Z,101109.31
2022-08-26T12:43:45.830Z,101110.88
2022-08-26T12:46:16.346Z,101109.75
2022-08-26T12:48:49.095Z,101115.63
2022-08-26T12:51:25.987Z,101119.44
2022-08-26T12:53:54.014Z,101123.38
2022-08-26T12:56:30.047Z,101128.84
2022-08-26T12:59:05.982Z,101125.44
2022-08-26T13:01:39.696Z,101122.56
2022-08-26T13:04:07.787Z,101133.41
2022-08-26T13:06:35.900Z,101139.06
2022-08-26T13:09:06.110Z,101135.25
2022-08-26T13:11:35.691Z,101125.88
2022-08-26T13:14:07.401Z,101119.25
2022-08-26T13:16:35.854Z,101126.56
2022-08-26T13:19:10.159Z,101125.03
2022-08-26T13:21:42.940Z,101114.34
2022-08-26T13:24:11.699Z,101120.53
2022-08-26T13:26:39.740Z,101113.75
2022-08-26T13:29:10.494Z,101120.41
2022-08-26T13:31:40.958Z,101121.63
2022-08-26T13:34:09.628Z,101127.16
2022-08-26T13:36:37.585Z,101133.41
2022-08-26T13:39:05.711Z,101148.88
2022-08-26T13:41:33.897Z,101149.69
2022-08-26T13:44:01.817Z,101152.91
2022-08-26T13:46:31.158Z,101139.94
2022-08-26T13:48:59.705Z,101132.31
2022-08-26T13:51:28.959Z,101147.44
2022-08-26T13:53:57.952Z,101152.94
2022-08-26T13:56:27.442Z,101143.72
2022-08-26T13:58:55.414Z,101135.94
2022-08-26T14:01:23.809Z,101145.75
2022-08-26T14:03:53.250Z,101158.56
2022-08-26T14:06:21.266Z,101167.13
2022-08-26T14:08:49.698Z,101170.84
2022-08-26T14:11:18.281Z,101189.00
2022-08-26T14:13:46.210Z,101208.88
2022-08-26T14:16:18.834Z,101208.09
2022-08-26T14:18:50.588Z,101226.69
2022-08-26T14:21:20.535Z,101251.59
2022-08-26T14:23:48.525Z,101264.44
2022-08-26T14:26:27.976Z,101280.66
2022-08-26T14:28:58.185Z,101278.78
2022-08-26T14:31:26.994Z,101273.16
2022-08-26T14:33:56.837Z,101277.91
2022-08-26T14:36:29.201Z,101282.06
2022-08-26T14:39:00.154Z,101281.75
2022-08-26T14:41:28.362Z,101277.31
2022-08-26T14:44:00.454Z,101276.22
2022-08-26T14:46:29.737Z,101288.34
2022-08-26T14:49:02.005Z,101298.53
2022-08-26T14:51:32.153Z,101290.69
2022-08-26T14:54:16.073Z,101300.44
2022-08-26T14:56:48.540Z,101293.91
2022-08-26T14:59:20.713Z,101275.81
2022-08-26T15:01:49.103Z,101264.16
2022-08-26T15:04:17.592Z,101260.25
2022-08-26T15:06:47.219Z,101261.19
2022-08-26T15:09:15.733Z,101282.69
2022-08-26T15:11:43.652Z,101282.38
2022-08-26T15:14:14.729Z,101298.81
2022-08-26T15:16:48.185Z,101296.63
2022-08-26T15:19:16.301Z,101286.03
2022-08-26T15:21:47.091Z,101272.72
2022-08-26T15:24:16.450Z,101262.50
2022-08-26T15:26:45.159Z,101278.00
2022-08-26T15:29:13.411Z,101270.91
2022-08-26T15:31:41.638Z,101269.53
2022-08-26T15:34:16.054Z,101274.91
2022-08-26T15:36:47.209Z,101269.22
2022-08-26T15:39:16.585Z,101284.88
2022-08-26T15:41:44.511Z,101308.00
2022-08-26T15:44:13.931Z,101301.97
2022-08-26T15:46:42.051Z,101290.56
2022-08-26T15:49:16.995Z,101290.06
2022-08-26T15:51:52.672Z,101297.31
2022-08-26T15:54:22.515Z,101309.56
2022-08-26T15:56:52.180Z,101314.09
2022-08-26T15:59:21.454Z,101332.91
2022-08-26T16:01:49.519Z,101331.94
2022-08-26T16:04:18.491Z,101325.34
2022-08-26T16:06:50.226Z,101337.91
2022-08-26T16:09:18.682Z,101330.19
2022-08-26T16:11:46.625Z,101332.47
2022-08-26T16:14:14.576Z,101338.81
2022-08-26T16:16:42.611Z,101334.75
2022-08-26T16:19:11.534Z,101335.22
2022-08-26T16:21:40.919Z,101338.56
2022-08-26T16:24:10.637Z,101322.94
2022-08-26T16:26:39.612Z,101330.69
2022-08-26T16:29:09.291Z,101325.16
2022-08-26T16:31:37.905Z,101337.13
2022-08-26T16:34:06.196Z,101340.81
2022-08-26T16:36:34.613Z,101345.94
2022-08-26T16:39:02.695Z,101340.78
2022-08-26T16:41:32.550Z,101338.09
2022-08-26T16:44:00.674Z,101351.41
2022-08-26T16:46:29.200Z,101353.97
2022-08-26T16:48:58.250Z,101352.72
2022-08-26T16:51:28.301Z,101365.09
2022-08-26T16:53:57.327Z,101366.25
2022-08-26T16:56:33.653Z,101372.59
2022-08-26T16:59:04.060Z,101365.41
2022-08-26T17:01:32.185Z,101374.56
2022-08-26T17:04:00.138Z,101371.06
2022-08-26T17:06:28.067Z,101370.91
2022-08-26T17:08:55.962Z,101373.53
2022-08-26T17:11:23.887Z,101383.19
2022-08-26T17:13:51.822Z,101376.28
2022-08-26T17:16:25.868Z,101380.41
2022-08-26T17:18:55.902Z,101373.72
2022-08-26T17:21:24.026Z,101374.19
2022-08-26T17:23:51.950Z,101374.56
2022-08-26T17:26:20.197Z,101375.03
2022-08-26T17:28:48.149Z,101364.09
2022-08-26T17:31:16.162Z,101367.69
2022-08-26T17:33:48.859Z,101370.91
2022-08-26T17:36:21.159Z,101364.47
2022-08-26T17:38:50.454Z,101370.31
2022-08-26T17:41:22.141Z,101370.41
2022-08-26T17:43:50.035Z,101380.53
2022-08-26T17:46:18.283Z,101382.63
2022-08-26T17:48:48.343Z,101379.56
2022-08-26T17:51:19.200Z,101386.56
2022-08-26T17:53:47.840Z,101382.88
2022-08-26T17:56:18.717Z,101388.00
2022-08-26T17:58:48.210Z,101388.94
2022-08-26T18:01:19.265Z,101393.94
2022-08-26T18:03:48.994Z,101388.00
2022-08-26T18:06:16.968Z,101389.38
2022-08-26T18:08:45.167Z,101406.88
2022-08-26T18:11:15.561Z,101399.53
2022-08-26T18:13:47.637Z,101407.66
2022-08-26T18:16:17.354Z,101405.25
2022-08-26T18:18:45.591Z,101412.50
2022-08-26T18:21:17.009Z,101411.13
2022-08-26T18:23:45.618Z,101408.00
2022-08-26T18:26:17.609Z,101403.63
2022-08-26T18:29:01.801Z,101404.84
2022-08-26T18:31:30.488Z,101407.00
2022-08-26T18:34:00.187Z,101396.91
2022-08-26T18:36:31.654Z,101394.81
2022-08-26T18:38:59.919Z,101394.44
2022-08-26T18:41:30.148Z,101391.22
2022-08-26T18:43:58.722Z,101394.91
2022-08-26T18:46:28.315Z,101391.50
2022-08-26T18:48:57.619Z,101387.25
2022-08-26T18:51:27.195Z,101387.25
2022-08-26T18:53:56.883Z,101390.66
2022-08-26T18:56:25.185Z,101390.94
2022-08-26T18:58:53.210Z,101385.06
2022-08-26T19:01:25.465Z,101390.16
2022-08-26T19:03:55.714Z,101378.91
2022-08-26T19:06:25.302Z,101379.19
2022-08-26T19:08:53.679Z,101379.97
2022-08-26T19:11:32.492Z,101380.97
2022-08-26T19:14:07.487Z,101369.38
2022-08-26T19:16:35.803Z,101368.63
2022-08-26T19:19:03.801Z,101366.59
2022-08-26T19:21:33.382Z,101371.03
2022-08-26T19:24:03.578Z,101374.63
2022-08-26T19:26:33.166Z,101373.84
2022-08-26T19:29:01.766Z,101379.91
2022-08-26T19:31:29.727Z,101379.75
2022-08-26T19:33:58.121Z,101381.53
2022-08-26T19:36:27.735Z,101375.28
2022-08-26T19:38:56.803Z,101368.31
2022-08-26T19:41:37.091Z,101364.47
2022-08-26T19:44:11.080Z,101355.75
2022-08-26T19:49:12.471Z,101364.25
2022-08-26T19:51:40.658Z,101365.88
2022-08-26T19:54:08.713Z,101364.25
2022-08-26T19:56:36.680Z,101364.19
2022-08-26T19:59:07.013Z,101359.63
2022-08-26T20:01:35.174Z,101369.91
2022-08-26T20:04:04.110Z,101378.44
2022-08-26T20:06:32.199Z,101374.69
2022-08-26T20:09:00.085Z,101371.34
2022-08-26T20:11:28.049Z,101380.22
2022-08-26T20:13:57.148Z,101385.25
2022-08-26T20:16:26.634Z,101393.56
2022-08-26T20:19:12.136Z,101395.16
2022-08-26T20:21:41.597Z,101398.91
2022-08-26T20:24:12.814Z,101398.25
2022-08-26T20:26:43.401Z,101398.84
2022-08-26T20:29:12.948Z,101407.28
2022-08-26T20:31:44.044Z,101404.47
2022-08-26T20:34:13.202Z,101405.84
2022-08-26T20:36:41.971Z,101401.34
2022-08-26T20:39:10.739Z,101406.13
2022-08-26T20:41:39.298Z,101399.31
2022-08-26T20:44:08.073Z,101399.31
2022-08-26T20:46:36.998Z,101405.53
2022-08-26T20:49:07.405Z,101398.50
2022-08-26T20:51:36.949Z,101393.75
2022-08-26T20:54:05.746Z,101395.00
2022-08-26T20:56:34.018Z,101395.50
2022-08-26T20:59:02.690Z,101396.25
2022-08-26T21:01:34.517Z,101393.13
2022-08-26T21:04:04.120Z,101395.66
2022-08-26T21:06:33.814Z,101394.28
2022-08-26T21:09:02.490Z,101392.84
2022-08-26T21:11:31.898Z,101387.56
2022-08-26T21:14:16.051Z,101399.94
2022-08-26T21:16:46.010Z,101393.78
2022-08-26T21:19:16.146Z,101399.94
2022-08-26T21:21:45.803Z,101398.22
2022-08-26T21:24:13.958Z,101391.66
2022-08-26T21:26:41.912Z,101382.09
2022-08-26T21:29:10.482Z,101376.81
2022-08-26T21:31:44.933Z,101364.72
2022-08-26T21:34:14.174Z,101370.94
2022-08-26T21:36:42.124Z,101366.50
2022-08-26T21:39:12.172Z,101374.34
2022-08-26T21:41:40.944Z,101372.53
2022-08-26T21:44:09.738Z,101363.28
2022-08-26T21:46:37.759Z,101362.50
2022-08-26T21:49:07.900Z,101365.81
2022-08-26T21:51:44.155Z,101367.19
2022-08-26T21:54:14.207Z,101373.03
2022-08-26T21:56:44.561Z,101375.03
2022-08-26T21:59:12.909Z,101369.75
2022-08-26T22:01:41.050Z,101372.38
2022-08-26T22:04:10.129Z,101379.53
2022-08-26T22:06:43.189Z,101369.22
2022-08-26T22:09:11.901Z,101379.88
2022-08-26T22:11:41.962Z,101366.78
2022-08-26T22:14:09.935Z,101370.00
2022-08-26T22:16:37.875Z,101368.56
2022-08-26T22:19:05.886Z,101369.22
2022-08-26T22:21:34.031Z,101364.88
2022-08-26T22:24:02.315Z,101362.69
2022-08-26T22:26:32.914Z,101366.78
2022-08-26T22:29:03.222Z,101357.06
2022-08-26T22:31:38.035Z,101350.72
2022-08-26T22:34:08.405Z,101356.94
2022-08-26T22:36:43.111Z,101350.81
2022-08-26T22:39:13.117Z,101350.22
2022-08-26T22:41:42.018Z,101344.19
2022-08-26T22:44:12.314Z,101342.50
2022-08-26T22:46:40.542Z,101332.53
2022-08-26T22:49:09.880Z,101324.88
2022-08-26T22:51:37.872Z,101330.84
2022-08-26T22:54:06.249Z,101323.56
2022-08-26T22:56:34.339Z,101324.63
2022-08-26T22:59:02.328Z,101330.56
2022-08-26T23:01:31.827Z,101335.06
2022-08-26T23:03:59.788Z,101330.75
2022-08-26T23:06:27.702Z,101335.34
2022-08-26T23:08:55.622Z,101327.56
2022-08-26T23:11:23.521Z,101326.31
2022-08-26T23:13:51.476Z,101329.91
2022-08-26T23:16:19.456Z,101329.13
2022-08-26T23:18:48.834Z,101324.97
2022-08-26T23:21:16.710Z,101332.81
2022-08-26T23:23:45.394Z,101334.75
2022-08-26T23:26:17.529Z,101332.38
2022-08-26T23:28:45.797Z,101325.13
2022-08-26T23:31:14.200Z,101327.75
2022-08-26T23:34:00.755Z,101324.88
2022-08-26T23:36:32.106Z,101320.78
2022-08-26T23:39:03.187Z,101319.75
2022-08-26T23:41:31.153Z,101326.94
2022-08-26T23:44:03.307Z,101319.16
2022-08-26T23:46:31.884Z,101317.31
2022-08-26T23:49:00.061Z,101312.38
2022-08-26T23:51:46.051Z,101311.00
2022-08-26T23:54:16.615Z,101306.66
2022-08-26T23:56:44.786Z,101307.50
2022-08-26T23:59:12.823Z,101303.75
